createdAt,value
2023-05-19T00:02:20.985Z,101325.06
2023-05-19T00:04:52.325Z,101328.55
2023-05-19T00:07:27.113Z,101326.45
2023-05-19T00:09:58.304Z,101328.02
2023-05-19T00:12:29.542Z,101327.84
2023-05-19T00:15:00.592Z,101329.77
2023-05-19T00:17:31.053Z,101330.63
2023-05-19T00:20:01.562Z,101332.22
2023-05-19T00:22:31.941Z,101333.43
2023-05-19T00:25:02.332Z,101336.41
2023-05-19T00:27:32.638Z,101336.58
2023-05-19T00:30:02.989Z,101330.63
2023-05-19T00:32:33.382Z,101333.59
2023-05-19T00:35:03.740Z,101337.09
2023-05-19T00:37:34.189Z,101333.56
2023-05-19T00:40:06.251Z,101331.45
2023-05-19T00:42:36.708Z,101337.55
2023-05-19T00:45:08.836Z,101336.13
2023-05-19T00:47:39.350Z,101335.23
2023-05-19T00:50:11.458Z,101336.59
2023-05-19T00:52:41.981Z,101338.48
2023-05-19T00:55:13.963Z,101338.45
2023-05-19T00:57:45.402Z,101337.02
2023-05-19T01:00:18.285Z,101340.67
2023-05-19T01:02:50.370Z,101342.07
2023-05-19T01:05:20.906Z,101342.91
2023-05-19T01:07:53.644Z,101344.11
2023-05-19T01:10:24.133Z,101339.55
2023-05-19T01:12:54.505Z,101336.22
2023-05-19T01:15:26.725Z,101334.63
2023-05-19T01:18:07.461Z,101337.58
2023-05-19T01:20:46.511Z,101335.30
2023-05-19T01:23:29.834Z,101333.91
2023-05-19T01:26:18.755Z,101334.27
2023-05-19T01:29:31.475Z,101338.45
2023-05-19T01:32:04.997Z,101339.84
2023-05-19T01:34:36.202Z,101343.30
2023-05-19T01:37:08.931Z,101341.72
2023-05-19T01:39:41.469Z,101344.36
2023-05-19T01:42:12.883Z,101342.98
2023-05-19T01:44:44.140Z,101339.98
2023-05-19T01:47:15.454Z,101342.25
2023-05-19T01:49:46.697Z,101342.94
2023-05-19T01:52:17.062Z,101340.33
2023-05-19T01:54:47.472Z,101346.96
2023-05-19T01:57:25.854Z,101347.85
2023-05-19T02:00:05.669Z,101347.88
2023-05-19T02:02:55.103Z,101346.48
2023-05-19T02:05:34.740Z,101341.08
2023-05-19T02:08:13.065Z,101340.04
2023-05-19T02:10:48.896Z,101341.61
2023-05-19T02:13:21.974Z,101342.14
2023-05-19T02:15:55.496Z,101343.19
2023-05-19T02:18:26.203Z,101341.79
2023-05-19T02:20:56.563Z,101342.48
2023-05-19T02:23:28.237Z,101342.14
2023-05-19T02:26:01.447Z,101340.05
2023-05-19T02:28:31.869Z,101341.98
2023-05-19T02:31:02.652Z,101340.59
2023-05-19T02:33:33.147Z,101338.66
2023-05-19T02:36:03.534Z,101337.98
2023-05-19T02:38:33.906Z,101336.92
2023-05-19T02:41:04.208Z,101334.48
2023-05-19T02:43:34.579Z,101330.64
2023-05-19T02:46:05.002Z,101330.13
2023-05-19T02:48:35.467Z,101321.73
2023-05-19T02:51:07.362Z,101332.57
2023-05-19T02:53:37.786Z,101322.45
2023-05-19T02:56:08.823Z,101320.55
2023-05-19T02:58:39.552Z,101321.96
2023-05-19T03:01:10.096Z,101321.45
2023-05-19T03:03:40.543Z,101326.16
2023-05-19T03:06:11.465Z,101325.48
2023-05-19T03:08:42.511Z,101328.98
2023-05-19T03:11:13.062Z,101328.47
2023-05-19T03:13:43.493Z,101327.08
2023-05-19T03:16:14.031Z,101331.45
2023-05-19T03:18:45.779Z,101328.48
2023-05-19T03:21:16.278Z,101327.45
2023-05-19T03:23:47.182Z,101330.61
2023-05-19T03:26:17.551Z,101328.70
2023-05-19T03:28:48.575Z,101327.66
2023-05-19T03:31:18.986Z,101330.82
2023-05-19T03:33:49.473Z,101328.72
2023-05-19T03:36:19.794Z,101323.84
2023-05-19T03:38:50.672Z,101320.51
2023-05-19T03:41:21.136Z,101319.98
2023-05-19T03:43:51.592Z,101321.93
2023-05-19T03:46:22.137Z,101320.01
2023-05-19T03:49:11.458Z,101321.06
2023-05-19T03:52:03.373Z,101321.98
2023-05-19T03:54:57.745Z,101318.64
2023-05-19T03:57:29.810Z,101318.67
2023-05-19T04:00:00.291Z,101321.47
2023-05-19T04:02:31.714Z,101317.81
2023-05-19T04:05:04.868Z,101320.80
2023-05-19T04:07:35.979Z,101322.20
2023-05-19T04:10:08.439Z,101323.09
2023-05-19T04:12:38.836Z,101320.81
2023-05-19T04:15:12.382Z,101322.94
2023-05-19T04:17:44.399Z,101328.18
2023-05-19T04:20:15.903Z,101330.45
2023-05-19T04:22:46.345Z,101328.01
2023-05-19T04:25:16.770Z,101329.07
2023-05-19T04:27:48.274Z,101328.37
2023-05-19T04:30:22.610Z,101325.94
2023-05-19T04:32:54.032Z,101325.42
2023-05-19T04:35:24.504Z,101322.63
2023-05-19T04:37:55.773Z,101321.92
2023-05-19T04:40:31.421Z,101320.51
2023-05-19T04:43:02.986Z,101321.90
2023-05-19T04:45:34.194Z,101323.12
2023-05-19T04:48:06.120Z,101328.71
2023-05-19T04:50:38.655Z,101328.01
2023-05-19T04:53:09.185Z,101328.70
2023-05-19T04:55:39.975Z,101328.35
2023-05-19T04:58:10.850Z,101331.48
2023-05-19T05:00:41.407Z,101337.77
2023-05-19T05:03:14.685Z,101333.39
2023-05-19T05:05:45.690Z,101337.05
2023-05-19T05:08:22.847Z,101337.04
2023-05-19T05:10:55.468Z,101340.16
2023-05-19T05:13:27.059Z,101341.37
2023-05-19T05:15:58.583Z,101337.67
2023-05-19T05:18:30.629Z,101339.06
2023-05-19T05:21:01.867Z,101339.23
2023-05-19T05:23:33.801Z,101334.13
2023-05-19T05:26:10.650Z,101336.05
2023-05-19T05:28:42.527Z,101335.70
2023-05-19T05:31:12.989Z,101339.06
2023-05-19T05:33:44.183Z,101341.34
2023-05-19T05:36:14.859Z,101337.33
2023-05-19T05:38:45.479Z,101330.50
2023-05-19T05:41:16.609Z,101332.80
2023-05-19T05:43:47.295Z,101331.23
2023-05-19T05:46:17.696Z,101335.45
2023-05-19T05:48:49.353Z,101335.98
2023-05-19T05:51:22.312Z,101331.92
2023-05-19T05:53:55.778Z,101332.46
2023-05-19T05:56:33.844Z,101330.90
2023-05-19T05:59:05.814Z,101333.88
2023-05-19T06:01:37.942Z,101331.25
2023-05-19T06:04:10.128Z,101338.42
2023-05-19T06:06:41.253Z,101336.64
2023-05-19T06:09:12.536Z,101336.41
2023-05-19T06:11:43.051Z,101341.84
2023-05-19T06:14:13.770Z,101347.07
2023-05-19T06:16:54.273Z,101346.00
2023-05-19T06:19:25.773Z,101350.53
2023-05-19T06:21:56.377Z,101350.70
2023-05-19T06:24:27.038Z,101352.25
2023-05-19T06:26:57.487Z,101352.60
2023-05-19T06:29:28.453Z,101351.73
2023-05-19T06:31:59.781Z,101353.48
2023-05-19T06:34:30.497Z,101353.48
2023-05-19T06:37:02.377Z,101353.46
2023-05-19T06:39:34.950Z,101354.16
2023-05-19T06:42:06.178Z,101353.96
2023-05-19T06:45:15.427Z,101359.36
2023-05-19T06:47:45.922Z,101357.42
2023-05-19T06:50:16.737Z,101355.30
2023-05-19T06:52:47.733Z,101357.77
2023-05-19T06:55:18.299Z,101359.02
2023-05-19T06:57:48.698Z,101362.71
2023-05-19T07:00:23.079Z,101366.42
2023-05-19T07:03:02.747Z,101364.67
2023-05-19T07:05:33.229Z,101366.94
2023-05-19T07:08:05.105Z,101369.05
2023-05-19T07:10:35.907Z,101368.34
2023-05-19T07:13:09.205Z,101371.14
2023-05-19T07:15:40.178Z,101370.77
2023-05-19T07:18:10.778Z,101372.70
2023-05-19T07:20:41.249Z,101375.85
2023-05-19T07:23:11.584Z,101378.14
2023-05-19T07:25:42.562Z,101378.30
2023-05-19T07:28:14.640Z,101374.27
2023-05-19T07:30:45.833Z,101373.20
2023-05-19T07:33:16.519Z,101375.48
2023-05-19T07:35:47.109Z,101377.94
2023-05-19T07:38:18.731Z,101381.27
2023-05-19T07:40:49.251Z,101371.96
2023-05-19T07:43:19.599Z,101374.42
2023-05-19T07:45:50.044Z,101377.41
2023-05-19T07:48:22.578Z,101369.33
2023-05-19T07:50:53.528Z,101371.38
2023-05-19T07:53:23.984Z,101371.70
2023-05-19T07:55:55.473Z,101373.95
2023-05-19T07:58:27.746Z,101372.50
2023-05-19T08:00:59.732Z,101371.08
2023-05-19T08:03:30.599Z,101373.02
2023-05-19T08:06:01.230Z,101375.48
2023-05-19T08:08:33.475Z,101372.98
2023-05-19T08:11:06.649Z,101372.41
2023-05-19T08:13:37.118Z,101371.32
2023-05-19T08:16:08.457Z,101369.86
2023-05-19T08:18:39.199Z,101370.16
2023-05-19T08:21:09.619Z,101369.22
2023-05-19T08:23:40.022Z,101371.43
2023-05-19T08:26:10.479Z,101368.20
2023-05-19T08:28:41.650Z,101368.00
2023-05-19T08:31:12.033Z,101367.39
2023-05-19T08:33:42.630Z,101360.39
2023-05-19T08:36:13.068Z,101358.67
2023-05-19T08:38:43.569Z,101355.19
2023-05-19T08:41:14.029Z,101358.61
2023-05-19T08:43:45.764Z,101362.41
2023-05-19T08:46:17.490Z,101354.85
2023-05-19T08:48:53.205Z,101356.15
2023-05-19T08:51:33.838Z,101352.89
2023-05-19T08:54:10.436Z,101358.45
2023-05-19T08:56:41.531Z,101359.92
2023-05-19T08:59:13.157Z,101363.11
2023-05-19T09:01:46.404Z,101360.16
2023-05-19T09:04:18.063Z,101357.55
2023-05-19T09:06:48.580Z,101358.32
2023-05-19T09:09:18.975Z,101357.08
2023-05-19T09:11:49.821Z,101354.79
2023-05-19T09:14:20.155Z,101353.33
2023-05-19T09:16:52.803Z,101354.44
2023-05-19T09:19:23.294Z,101347.33
2023-05-19T09:22:03.258Z,101346.05
2023-05-19T09:24:34.963Z,101347.09
2023-05-19T09:27:05.878Z,101345.20
2023-05-19T09:29:36.594Z,101344.30
2023-05-19T09:32:08.158Z,101343.20
2023-05-19T09:34:43.992Z,101342.30
2023-05-19T09:37:15.941Z,101335.72
2023-05-19T09:39:49.259Z,101329.47
2023-05-19T09:42:25.018Z,101332.98
2023-05-19T09:45:02.516Z,101333.72
2023-05-19T09:47:38.447Z,101328.04
2023-05-19T09:50:11.379Z,101327.05
2023-05-19T09:52:44.655Z,101322.98
2023-05-19T09:55:15.828Z,101313.58
2023-05-19T09:57:47.583Z,101314.48
2023-05-19T10:00:20.955Z,101312.21
2023-05-19T10:02:52.350Z,101309.91
2023-05-19T10:05:23.278Z,101307.52
2023-05-19T10:07:55.229Z,101304.68
2023-05-19T10:10:26.353Z,101307.37
2023-05-19T10:12:57.078Z,101308.39
2023-05-19T10:15:27.675Z,101302.80
2023-05-19T10:17:59.447Z,101302.05
2023-05-19T10:20:30.493Z,101296.92
2023-05-19T10:23:02.953Z,101297.95
2023-05-19T10:25:36.537Z,101298.20
2023-05-19T10:28:11.242Z,101293.58
2023-05-19T10:30:46.005Z,101291.04
2023-05-19T10:33:19.995Z,101297.71
2023-05-19T10:36:09.073Z,101297.97
2023-05-19T10:38:53.403Z,101295.26
2023-05-19T10:41:29.676Z,101297.65
2023-05-19T10:44:11.046Z,101295.04
2023-05-19T10:46:43.236Z,101300.92
2023-05-19T10:49:22.974Z,101307.59
2023-05-19T10:51:56.765Z,101307.92
2023-05-19T10:54:50.060Z,101310.71
2023-05-19T10:57:21.336Z,101313.91
2023-05-19T10:59:51.701Z,101316.39
2023-05-19T11:02:43.101Z,101317.82
2023-05-19T11:05:16.645Z,101315.34
2023-05-19T11:07:56.283Z,101310.55
2023-05-19T11:10:27.216Z,101306.33
2023-05-19T11:12:59.423Z,101306.03
2023-05-19T11:15:30.344Z,101307.23
2023-05-19T11:18:04.011Z,101310.60
2023-05-19T11:20:39.840Z,101312.60
2023-05-19T11:23:11.735Z,101307.86
2023-05-19T11:25:47.845Z,101310.55
2023-05-19T11:28:25.662Z,101314.25
2023-05-19T11:30:57.764Z,101310.08
2023-05-19T11:33:29.189Z,101310.30
2023-05-19T11:35:59.625Z,101309.04
2023-05-19T11:38:31.011Z,101307.98
2023-05-19T11:41:01.467Z,101307.33
2023-05-19T11:43:31.914Z,101303.91
2023-05-19T11:46:02.364Z,101307.17
2023-05-19T11:48:32.974Z,101306.58
2023-05-19T11:51:04.052Z,101308.56
2023-05-19T11:53:36.176Z,101312.17
2023-05-19T11:56:07.644Z,101305.04
2023-05-19T11:58:39.664Z,101306.71
2023-05-19T12:01:11.248Z,101304.58
2023-05-19T12:03:41.764Z,101300.18
2023-05-19T12:06:17.383Z,101304.44
2023-05-19T12:08:47.964Z,101305.35
2023-05-19T12:11:20.059Z,101300.43
2023-05-19T12:13:54.629Z,101299.56
2023-05-19T12:16:25.235Z,101299.09
2023-05-19T12:18:57.855Z,101302.14
2023-05-19T12:21:34.335Z,101301.27
2023-05-19T12:24:06.650Z,101302.98
2023-05-19T12:26:37.966Z,101302.79
2023-05-19T12:29:08.886Z,101305.94
2023-05-19T12:31:39.750Z,101305.95
2023-05-19T12:34:10.311Z,101306.89
2023-05-19T12:36:42.182Z,101304.09
2023-05-19T12:39:13.734Z,101306.24
2023-05-19T12:41:47.328Z,101306.10
2023-05-19T12:44:19.088Z,101307.34
2023-05-19T12:46:52.991Z,101304.34
2023-05-19T12:49:23.461Z,101306.93
2023-05-19T12:51:55.641Z,101310.04
2023-05-19T12:54:26.313Z,101306.30
2023-05-19T12:56:58.776Z,101306.84
2023-05-19T12:59:38.344Z,101305.48
2023-05-19T13:02:09.545Z,101301.14
2023-05-19T13:04:40.104Z,101301.42
2023-05-19T13:07:10.575Z,101300.50
2023-05-19T13:09:40.945Z,101305.19
2023-05-19T13:12:11.592Z,101303.63
2023-05-19T13:14:43.662Z,101306.45
2023-05-19T13:17:14.018Z,101308.05
2023-05-19T13:19:44.395Z,101305.45
2023-05-19T13:22:15.144Z,101304.48
2023-05-19T13:24:45.505Z,101302.55
2023-05-19T13:27:15.850Z,101303.27
2023-05-19T13:29:46.140Z,101306.06
2023-05-19T13:32:16.702Z,101304.66
2023-05-19T13:34:47.142Z,101306.59
2023-05-19T13:37:17.568Z,101300.77
2023-05-19T13:39:47.933Z,101303.42
2023-05-19T13:42:18.559Z,101301.81
2023-05-19T13:44:49.411Z,101300.18
2023-05-19T13:47:20.033Z,101299.80
2023-05-19T13:49:50.662Z,101297.81
2023-05-19T13:52:21.382Z,101299.14
2023-05-19T13:54:54.508Z,101297.28
2023-05-19T13:57:26.480Z,101297.90
2023-05-19T14:00:03.333Z,101296.67
2023-05-19T14:02:44.484Z,101298.23
2023-05-19T14:05:14.962Z,101298.54
2023-05-19T14:07:45.533Z,101294.30
2023-05-19T14:10:16.387Z,101290.96
2023-05-19T14:13:12.391Z,101291.33
2023-05-19T14:15:38.334Z,101289.71
2023-05-19T14:18:09.028Z,101290.65
2023-05-19T14:20:39.438Z,101288.14
2023-05-19T14:23:09.824Z,101286.89
2023-05-19T14:25:40.293Z,101287.04
2023-05-19T14:28:11.628Z,101285.48
2023-05-19T14:30:42.542Z,101284.63
2023-05-19T14:33:13.194Z,101276.23
2023-05-19T14:35:43.959Z,101278.70
2023-05-19T14:38:15.381Z,101277.45
2023-05-19T14:40:48.492Z,101274.98
2023-05-19T14:43:19.215Z,101275.73
2023-05-19T14:45:52.074Z,101273.80
2023-05-19T14:48:23.419Z,101276.17
2023-05-19T14:50:54.088Z,101271.59
2023-05-19T14:53:24.905Z,101273.32
2023-05-19T14:55:55.290Z,101274.69
2023-05-19T14:58:28.230Z,101278.71
2023-05-19T15:01:00.975Z,101278.33
2023-05-19T15:03:31.443Z,101277.45
2023-05-19T15:06:01.923Z,101276.70
2023-05-19T15:08:32.333Z,101276.81
2023-05-19T15:11:02.661Z,101276.67
2023-05-19T15:13:33.051Z,101278.16
2023-05-19T15:16:16.190Z,101272.10
2023-05-19T15:18:47.688Z,101274.71
2023-05-19T15:21:18.460Z,101272.92
2023-05-19T15:23:48.956Z,101273.28
2023-05-19T15:26:19.352Z,101274.45
2023-05-19T15:28:49.637Z,101268.63
2023-05-19T15:31:20.101Z,101266.25
2023-05-19T15:33:50.554Z,101265.13
2023-05-19T15:36:20.953Z,101269.86
2023-05-19T15:38:51.343Z,101267.16
2023-05-19T15:41:21.938Z,101265.18
2023-05-19T15:43:53.365Z,101263.76
2023-05-19T15:46:24.160Z,101259.08
2023-05-19T15:48:54.664Z,101257.30
2023-05-19T15:51:25.250Z,101256.27
2023-05-19T15:53:55.617Z,101260.19
2023-05-19T15:56:26.038Z,101263.23
2023-05-19T15:58:56.468Z,101259.71
2023-05-19T16:01:27.354Z,101260.76
2023-05-19T16:03:57.950Z,101257.24
2023-05-19T16:06:28.584Z,101263.20
2023-05-19T16:08:59.054Z,101263.94
2023-05-19T16:11:29.801Z,101260.40
2023-05-19T16:14:00.247Z,101261.77
2023-05-19T16:16:30.682Z,101261.08
2023-05-19T16:19:01.223Z,101263.98
2023-05-19T16:21:32.178Z,101261.19
2023-05-19T16:24:02.581Z,101260.67
2023-05-19T16:26:34.406Z,101256.98
2023-05-19T16:29:04.963Z,101253.23
2023-05-19T16:31:35.393Z,101257.10
2023-05-19T16:34:05.830Z,101259.36
2023-05-19T16:36:36.502Z,101255.89
2023-05-19T16:39:07.009Z,101258.71
2023-05-19T16:41:37.529Z,101257.66
2023-05-19T16:44:08.059Z,101255.45
2023-05-19T16:46:38.470Z,101251.00
2023-05-19T16:49:09.125Z,101249.82
2023-05-19T16:51:39.505Z,101253.94
2023-05-19T16:54:09.842Z,101253.13
2023-05-19T16:56:40.226Z,101254.40
2023-05-19T16:59:11.593Z,101258.27
2023-05-19T17:01:42.036Z,101260.08
2023-05-19T17:04:13.331Z,101258.54
2023-05-19T17:06:43.914Z,101258.71
2023-05-19T17:09:14.338Z,101259.27
2023-05-19T17:11:44.814Z,101260.27
2023-05-19T17:14:15.340Z,101258.91
2023-05-19T17:16:45.740Z,101257.69
2023-05-19T17:19:16.962Z,101259.52
2023-05-19T17:21:47.377Z,101263.61
2023-05-19T17:24:17.758Z,101260.31
2023-05-19T17:26:48.113Z,101259.82
2023-05-19T17:29:18.498Z,101263.71
2023-05-19T17:31:48.923Z,101265.02
2023-05-19T17:34:19.301Z,101267.54
2023-05-19T17:36:50.524Z,101270.56
2023-05-19T17:39:21.247Z,101271.80
2023-05-19T17:41:51.667Z,101272.88
2023-05-19T17:44:22.017Z,101272.76
2023-05-19T17:46:52.773Z,101272.66
2023-05-19T17:49:25.742Z,101267.80
2023-05-19T17:51:57.672Z,101273.98
2023-05-19T17:54:28.937Z,101274.55
2023-05-19T17:57:03.381Z,101279.32
2023-05-19T17:59:35.274Z,101281.43
2023-05-19T18:02:07.215Z,101282.52
2023-05-19T18:04:38.949Z,101277.77
2023-05-19T18:07:11.932Z,101276.58
2023-05-19T18:09:45.579Z,101274.52
2023-05-19T18:12:16.335Z,101275.58
2023-05-19T18:14:47.156Z,101268.60
2023-05-19T18:17:17.469Z,101272.69
2023-05-19T18:19:49.522Z,101274.47
2023-05-19T18:22:20.112Z,101273.61
2023-05-19T18:24:50.577Z,101268.51
2023-05-19T18:27:20.894Z,101267.45
2023-05-19T18:29:51.339Z,101267.83
2023-05-19T18:32:21.738Z,101268.54
2023-05-19T18:34:52.147Z,101264.86
2023-05-19T18:37:22.818Z,101260.13
2023-05-19T18:39:53.216Z,101262.44
2023-05-19T18:42:25.636Z,101262.81
2023-05-19T18:44:55.989Z,101269.50
2023-05-19T18:47:26.674Z,101271.46
2023-05-19T18:49:57.250Z,101268.66
2023-05-19T18:52:28.705Z,101273.80
2023-05-19T18:55:01.122Z,101281.35
2023-05-19T18:57:31.681Z,101281.54
2023-05-19T19:00:02.393Z,101281.00
2023-05-19T19:02:32.759Z,101285.39
2023-05-19T19:05:05.134Z,101288.59
2023-05-19T19:07:35.635Z,101286.48
2023-05-19T19:10:06.504Z,101293.17
2023-05-19T19:12:37.057Z,101297.39
2023-05-19T19:15:09.499Z,101299.34
2023-05-19T19:17:41.094Z,101299.17
2023-05-19T19:20:13.053Z,101303.77
2023-05-19T19:22:43.469Z,101309.22
2023-05-19T19:25:13.900Z,101306.06
2023-05-19T19:27:44.205Z,101307.30
2023-05-19T19:30:15.066Z,101307.50
2023-05-19T19:32:45.502Z,101310.14
2023-05-19T19:35:16.836Z,101310.70
2023-05-19T19:37:47.917Z,101312.30
2023-05-19T19:40:18.704Z,101308.62
2023-05-19T19:42:49.091Z,101307.73
2023-05-19T19:45:20.953Z,101311.95
2023-05-19T19:47:51.739Z,101307.90
2023-05-19T19:50:23.644Z,101311.09
2023-05-19T19:52:54.020Z,101309.16
2023-05-19T19:55:24.456Z,101306.52
2023-05-19T19:57:54.806Z,101306.89
2023-05-19T20:00:25.583Z,101306.73
2023-05-19T20:03:04.903Z,101307.07
2023-05-19T20:05:38.090Z,101311.47
2023-05-19T20:08:08.633Z,101317.81
2023-05-19T20:10:39.045Z,101315.36
2023-05-19T20:13:09.501Z,101319.76
2023-05-19T20:15:39.904Z,101321.17
2023-05-19T20:18:10.870Z,101318.20
2023-05-19T20:20:42.315Z,101323.66
2023-05-19T20:23:13.446Z,101319.97
2023-05-19T20:25:53.697Z,101322.44
2023-05-19T20:28:33.264Z,101319.64
2023-05-19T20:31:03.864Z,101316.14
2023-05-19T20:33:34.308Z,101317.37
2023-05-19T20:36:05.904Z,101322.65
2023-05-19T20:38:36.289Z,101323.52
2023-05-19T20:41:06.705Z,101326.15
2023-05-19T20:43:37.118Z,101327.57
2023-05-19T20:46:07.605Z,101323.19
2023-05-19T20:48:38.181Z,101324.60
2023-05-19T20:51:09.107Z,101323.91
2023-05-19T20:53:39.476Z,101320.23
2023-05-19T20:56:10.583Z,101320.24
2023-05-19T20:58:41.134Z,101316.91
2023-05-19T21:01:11.573Z,101313.23
2023-05-19T21:03:42.026Z,101311.85
2023-05-19T21:06:12.470Z,101312.02
2023-05-19T21:08:42.884Z,101308.15
2023-05-19T21:11:13.366Z,101308.85
2023-05-19T21:13:43.744Z,101314.30
2023-05-19T21:16:14.095Z,101310.09
2023-05-19T21:18:44.457Z,101307.64
2023-05-19T21:21:14.840Z,101304.50
2023-05-19T21:23:45.236Z,101307.84
2023-05-19T21:26:15.555Z,101303.98
2023-05-19T21:28:46.296Z,101304.35
2023-05-19T21:31:16.747Z,101307.34
2023-05-19T21:33:47.245Z,101308.06
2023-05-19T21:36:18.420Z,101304.73
2023-05-19T21:38:48.841Z,101306.13
2023-05-19T21:41:19.330Z,101307.90
2023-05-19T21:43:49.688Z,101310.02
2023-05-19T21:46:20.201Z,101306.67
2023-05-19T21:48:50.584Z,101305.45
2023-05-19T21:51:20.996Z,101306.52
2023-05-19T21:53:51.453Z,101309.66
2023-05-19T21:56:22.752Z,101309.84
2023-05-19T21:58:53.209Z,101305.81
2023-05-19T22:01:23.779Z,101303.71
2023-05-19T22:03:55.054Z,101301.80
2023-05-19T22:06:25.432Z,101296.52
2023-05-19T22:08:55.873Z,101298.64
2023-05-19T22:11:26.561Z,101296.89
2023-05-19T22:13:56.918Z,101298.64
2023-05-19T22:16:27.448Z,101300.58
2023-05-19T22:18:58.206Z,101302.52
2023-05-19T22:21:28.680Z,101301.81
2023-05-19T22:23:59.089Z,101298.64
2023-05-19T22:26:29.459Z,101297.42
2023-05-19T22:28:59.858Z,101294.43
2023-05-19T22:31:31.065Z,101290.21
2023-05-19T22:34:01.466Z,101287.61
2023-05-19T22:36:32.256Z,101284.28
2023-05-19T22:39:02.672Z,101285.86
2023-05-19T22:41:33.093Z,101279.55
2023-05-19T22:44:03.613Z,101282.02
2023-05-19T22:46:34.250Z,101282.02
2023-05-19T22:49:04.784Z,101277.98
2023-05-19T22:51:35.163Z,101280.27
2023-05-19T22:54:05.919Z,101279.59
2023-05-19T22:56:36.377Z,101281.69
2023-05-19T22:59:07.005Z,101281.17
2023-05-19T23:01:37.492Z,101281.17
2023-05-19T23:04:08.259Z,101283.65
2023-05-19T23:06:38.813Z,101286.62
2023-05-19T23:09:09.213Z,101287.33
2023-05-19T23:11:39.623Z,101286.98
2023-05-19T23:14:09.983Z,101288.04
2023-05-19T23:16:40.416Z,101286.11
2023-05-19T23:19:11.065Z,101282.78
2023-05-19T23:21:41.458Z,101285.41
2023-05-19T23:24:11.796Z,101281.37
2023-05-19T23:26:42.748Z,101283.65
2023-05-19T23:29:15.131Z,101285.07
2023-05-19T23:31:46.122Z,101284.73
2023-05-19T23:34:16.593Z,101284.04
2023-05-19T23:36:46.965Z,101280.00
2023-05-19T23:39:17.428Z,101277.55
2023-05-19T23:41:47.804Z,101272.81
2023-05-19T23:44:19.131Z,101275.09
2023-05-19T23:46:49.621Z,101271.92
2023-05-19T23:49:20.439Z,101269.83
2023-05-19T23:51:50.898Z,101268.79
2023-05-19T23:54:21.260Z,101268.61
2023-05-19T23:56:51.665Z,101273.38
2023-05-19T23:59:22.129Z,101269.86
